Terminal Aerodrome Forecast
Issued by NWS Memphis, TN

Home | Current Version | Previous Version | Text Only | Print | Product List | Glossary On
Versions: 1 2 3 4 5 6 7 8 9 10 11 12 13 14
466
FTUS44 KMEG 251730
TAFMKL
TAF
KMKL 251730Z 2518/2618 12004KT P6SM SCT045 SCT250
     FM260000 00000KT P6SM SKC
     FM260800 00000KT 4SM BR SKC
      TEMPO 2608/2612 2SM BR
     FM261500 VRB03KT P6SM SCT050 SCT250=

USA.gov is the U.S. government's official web portal to all federal, state and local government web resources and services.